sensor_id;sensor_type;location;lat;lon;timestamp;temperature;humidity
14709;DHT22;7445;50.774;4.944;2023-09-19T06:17:20;14.60;99.90
14709;DHT22;7445;50.774;4.944;2023-09-19T06:19:47;14.60;99.90
14709;DHT22;7445;50.774;4.944;2023-09-19T06:22:15;14.70;99.90
14709;DHT22;7445;50.774;4.944;2023-09-19T06:24:44;14.80;99.90
14709;DHT22;7445;50.774;4.944;2023-09-19T06:27:10;14.80;99.90
14709;DHT22;7445;50.774;4.944;2023-09-19T06:29:35;14.80;99.90
14709;DHT22;7445;50.774;4.944;2023-09-19T06:32:09;14.80;6.10
14709;DHT22;7445;50.774;4.944;2023-09-19T06:34:36;14.90;99.90
14709;DHT22;7445;50.774;4.944;2023-09-19T06:37:02;15.00;1.00
14709;DHT22;7445;50.774;4.944;2023-09-19T06:39:28;15.10;1.00
14709;DHT22;7445;50.774;4.944;2023-09-19T06:41:54;15.20;1.00
14709;DHT22;7445;50.774;4.944;2023-09-19T06:44:20;15.20;1.00
14709;DHT22;7445;50.774;4.944;2023-09-19T06:46:50;15.30;1.00
14709;DHT22;7445;50.774;4.944;2023-09-19T06:49:17;15.30;1.00
14709;DHT22;7445;50.774;4.944;2023-09-19T06:51:43;15.30;99.90
14709;DHT22;7445;50.774;4.944;2023-09-19T06:54:10;15.40;99.90
14709;DHT22;7445;50.774;4.944;2023-09-19T06:56:36;15.50;15.10
14709;DHT22;7445;50.774;4.944;2023-09-19T06:59:02;15.50;96.10
14709;DHT22;7445;50.774;4.944;2023-09-19T07:01:29;15.50;49.30
14709;DHT22;7445;50.774;4.944;2023-09-19T07:03:54;15.60;99.90
14709;DHT22;7445;50.774;4.944;2023-09-19T07:06:22;15.70;99.90
14709;DHT22;7445;50.774;4.944;2023-09-19T07:08:48;15.70;1.00
14709;DHT22;7445;50.774;4.944;2023-09-19T07:11:23;15.70;90.70
14709;DHT22;7445;50.774;4.944;2023-09-19T07:13:52;15.80;49.80
14709;DHT22;7445;50.774;4.944;2023-09-19T07:16:22;15.80;99.90
14709;DHT22;7445;50.774;4.944;2023-09-19T07:19:20;15.90;1.00
14709;DHT22;7445;50.774;4.944;2023-09-19T07:22:01;16.00;7.40
14709;DHT22;7445;50.774;4.944;2023-09-19T07:24:29;16.10;1.00
14709;DHT22;7445;50.774;4.944;2023-09-19T07:27:34;16.00;1.00
14709;DHT22;7445;50.774;4.944;2023-09-19T07:30:27;16.10;1.00
14709;DHT22;7445;50.774;4.944;2023-09-19T07:32:54;16.10;1.00
14709;DHT22;7445;50.774;4.944;2023-09-19T07:35:23;16.10;99.90
14709;DHT22;7445;50.774;4.944;2023-09-19T07:37:57;16.20;1.00
14709;DHT22;7445;50.774;4.944;2023-09-19T07:40:25;16.30;1.00
14709;DHT22;7445;50.774;4.944;2023-09-19T07:42:52;16.40;99.90
14709;DHT22;7445;50.774;4.944;2023-09-19T07:45:18;16.50;99.90
14709;DHT22;7445;50.774;4.944;2023-09-19T07:47:53;16.50;99.90
14709;DHT22;7445;50.774;4.944;2023-09-19T07:50:21;16.60;99.90
14709;DHT22;7445;50.774;4.944;2023-09-19T07:53:10;16.70;90.60
14709;DHT22;7445;50.774;4.944;2023-09-19T07:55:39;16.80;99.90
14709;DHT22;7445;50.774;4.944;2023-09-19T07:58:07;16.90;99.90
14709;DHT22;7445;50.774;4.944;2023-09-19T08:00:32;16.90;99.90
14709;DHT22;7445;50.774;4.944;2023-09-19T08:03:00;17.00;1.00
14709;DHT22;7445;50.774;4.944;2023-09-19T08:05:26;17.10;1.00
14709;DHT22;7445;50.774;4.944;2023-09-19T08:07:55;17.20;99.90
14709;DHT22;7445;50.774;4.944;2023-09-19T08:10:22;17.20;1.00
14709;DHT22;7445;50.774;4.944;2023-09-19T08:13:07;17.30;1.00
14709;DHT22;7445;50.774;4.944;2023-09-19T08:16:11;17.20;99.90
14709;DHT22;7445;50.774;4.944;2023-09-19T08:18:37;17.30;1.00
14709;DHT22;7445;50.774;4.944;2023-09-19T08:21:11;17.40;99.90
14709;DHT22;7445;50.774;4.944;2023-09-19T08:23:37;17.50;99.90
14709;DHT22;7445;50.774;4.944;2023-09-19T08:26:07;17.50;1.00
14709;DHT22;7445;50.774;4.944;2023-09-19T08:28:37;17.60;99.90
14709;DHT22;7445;50.774;4.944;2023-09-19T08:31:17;17.70;99.90
14709;DHT22;7445;50.774;4.944;2023-09-19T08:33:43;17.70;46.10
14709;DHT22;7445;50.774;4.944;2023-09-19T08:36:24;17.70;99.90
14709;DHT22;7445;50.774;4.944;2023-09-19T08:38:50;18.00;23.00
14709;DHT22;7445;50.774;4.944;2023-09-19T08:41:19;18.00;99.90
14709;DHT22;7445;50.774;4.944;2023-09-19T08:43:45;18.10;1.00
14709;DHT22;7445;50.774;4.944;2023-09-19T08:46:15;18.20;1.00
14709;DHT22;7445;50.774;4.944;2023-09-19T08:48:49;18.20;1.00
14709;DHT22;7445;50.774;4.944;2023-09-19T08:51:49;18.40;99.90
14709;DHT22;7445;50.774;4.944;2023-09-19T08:54:21;18.40;43.90
14709;DHT22;7445;50.774;4.944;2023-09-19T08:56:50;18.40;1.00
14709;DHT22;7445;50.774;4.944;2023-09-19T08:59:16;18.50;99.90
14709;DHT22;7445;50.774;4.944;2023-09-19T09:01:45;18.50;99.90
14709;DHT22;7445;50.774;4.944;2023-09-19T09:04:12;18.60;99.90
14709;DHT22;7445;50.774;4.944;2023-09-19T09:06:39;18.60;99.90
14709;DHT22;7445;50.774;4.944;2023-09-19T09:09:08;18.70;99.90
14709;DHT22;7445;50.774;4.944;2023-09-19T09:11:34;18.70;99.90
14709;DHT22;7445;50.774;4.944;2023-09-19T09:14:02;18.80;99.90
14709;DHT22;7445;50.774;4.944;2023-09-19T09:16:30;18.90;1.00
14709;DHT22;7445;50.774;4.944;2023-09-19T09:18:55;18.70;99.90
14709;DHT22;7445;50.774;4.944;2023-09-19T09:21:23;18.80;1.00
14709;DHT22;7445;50.774;4.944;2023-09-19T09:23:50;19.00;1.00
14709;DHT22;7445;50.774;4.944;2023-09-19T09:26:41;19.00;1.00
14709;DHT22;7445;50.774;4.944;2023-09-19T09:29:10;19.20;99.90
14709;DHT22;7445;50.774;4.944;2023-09-19T09:31:36;19.40;1.00
14709;DHT22;7445;50.774;4.944;2023-09-19T09:34:03;19.20;1.00
14709;DHT22;7445;50.774;4.944;2023-09-19T09:36:37;19.30;1.00
14709;DHT22;7445;50.774;4.944;2023-09-19T09:39:05;19.40;99.90
14709;DHT22;7445;50.774;4.944;2023-09-19T09:41:50;19.60;1.00
14709;DHT22;7445;50.774;4.944;2023-09-19T09:44:18;19.60;1.00
14709;DHT22;7445;50.774;4.944;2023-09-19T09:46:47;19.60;46.80
14709;DHT22;7445;50.774;4.944;2023-09-19T09:49:32;19.60;1.00
14709;DHT22;7445;50.774;4.944;2023-09-19T09:52:44;19.60;99.90
14709;DHT22;7445;50.774;4.944;2023-09-19T09:55:10;19.80;99.90
14709;DHT22;7445;50.774;4.944;2023-09-19T09:57:36;19.90;86.70
14709;DHT22;7445;50.774;4.944;2023-09-19T10:00:02;20.00;50.60
14709;DHT22;7445;50.774;4.944;2023-09-19T10:02:49;20.00;1.00
14709;DHT22;7445;50.774;4.944;2023-09-19T10:05:17;19.90;99.90
14709;DHT22;7445;50.774;4.944;2023-09-19T10:07:49;19.90;1.00
14709;DHT22;7445;50.774;4.944;2023-09-19T10:10:36;19.80;1.00
14709;DHT22;7445;50.774;4.944;2023-09-19T10:13:10;19.60;1.00
14709;DHT22;7445;50.774;4.944;2023-09-19T10:15:47;19.60;1.00
14709;DHT22;7445;50.774;4.944;2023-09-19T10:18:24;19.70;1.00
14709;DHT22;7445;50.774;4.944;2023-09-19T10:20:51;19.50;99.90
14709;DHT22;7445;50.774;4.944;2023-09-19T10:23:18;19.50;1.00
14709;DHT22;7445;50.774;4.944;2023-09-19T10:25:51;19.50;1.00
14709;DHT22;7445;50.774;4.944;2023-09-19T10:28:25;19.40;1.00
14709;DHT22;7445;50.774;4.944;2023-09-19T10:30:53;19.40;1.00
14709;DHT22;7445;50.774;4.944;2023-09-19T10:33:39;19.30;1.00
14709;DHT22;7445;50.774;4.944;2023-09-19T10:36:07;19.40;1.00
14709;DHT22;7445;50.774;4.944;2023-09-19T10:38:35;19.50;1.00
14709;DHT22;7445;50.774;4.944;2023-09-19T10:41:08;19.50;1.00
14709;DHT22;7445;50.774;4.944;2023-09-19T10:43:38;19.60;1.00
14709;DHT22;7445;50.774;4.944;2023-09-19T10:46:08;19.60;1.00
14709;DHT22;7445;50.774;4.944;2023-09-19T10:48:38;19.90;1.00
14709;DHT22;7445;50.774;4.944;2023-09-19T10:51:10;20.10;99.90
14709;DHT22;7445;50.774;4.944;2023-09-19T10:53:45;20.20;1.00
14709;DHT22;7445;50.774;4.944;2023-09-19T10:56:25;20.40;1.00
14709;DHT22;7445;50.774;4.944;2023-09-19T10:59:09;20.50;99.90
14709;DHT22;7445;50.774;4.944;2023-09-19T11:01:49;20.50;99.90
14709;DHT22;7445;50.774;4.944;2023-09-19T11:07:05;20.70;99.90
14709;DHT22;7445;50.774;4.944;2023-09-19T11:09:44;20.80;1.00
14709;DHT22;7445;50.774;4.944;2023-09-19T11:15:07;21.00;99.90
14709;DHT22;7445;50.774;4.944;2023-09-19T11:17:41;21.10;1.00
14709;DHT22;7445;50.774;4.944;2023-09-19T11:28:27;20.90;99.90
14709;DHT22;7445;50.774;4.944;2023-09-19T11:30:53;21.00;13.10
14709;DHT22;7445;50.774;4.944;2023-09-19T11:36:14;20.60;99.90
14709;DHT22;7445;50.774;4.944;2023-09-19T11:43:51;21.10;4.70
14709;DHT22;7445;50.774;4.944;2023-09-19T11:46:18;21.30;1.00
14709;DHT22;7445;50.774;4.944;2023-09-19T11:48:50;21.50;1.00
14709;DHT22;7445;50.774;4.944;2023-09-19T11:51:26;21.80;1.00
14709;DHT22;7445;50.774;4.944;2023-09-19T11:53:56;21.90;1.00
14709;DHT22;7445;50.774;4.944;2023-09-19T11:56:24;22.00;1.00
14709;DHT22;7445;50.774;4.944;2023-09-19T11:58:54;22.30;1.00
14709;DHT22;7445;50.774;4.944;2023-09-19T12:01:31;22.50;1.00
14709;DHT22;7445;50.774;4.944;2023-09-19T12:03:59;22.70;99.90
14709;DHT22;7445;50.774;4.944;2023-09-19T12:06:26;22.70;99.90
14709;DHT22;7445;50.774;4.944;2023-09-19T12:08:53;22.50;99.90
14709;DHT22;7445;50.774;4.944;2023-09-19T12:11:23;22.20;1.00
14709;DHT22;7445;50.774;4.944;2023-09-19T12:13:49;21.80;1.00
14709;DHT22;7445;50.774;4.944;2023-09-19T12:16:19;21.80;1.00
14709;DHT22;7445;50.774;4.944;2023-09-19T12:18:49;21.80;1.00
14709;DHT22;7445;50.774;4.944;2023-09-19T12:21:29;21.90;1.00
14709;DHT22;7445;50.774;4.944;2023-09-19T12:24:13;22.20;1.00
14709;DHT22;7445;50.774;4.944;2023-09-19T12:26:45;22.10;1.00
14709;DHT22;7445;50.774;4.944;2023-09-19T12:29:20;22.00;1.00
14709;DHT22;7445;50.774;4.944;2023-09-19T12:31:57;22.00;1.00
14709;DHT22;7445;50.774;4.944;2023-09-19T12:34:28;22.00;1.00
14709;DHT22;7445;50.774;4.944;2023-09-19T12:37:14;21.90;1.00
14709;DHT22;7445;50.774;4.944;2023-09-19T12:40:07;21.90;1.00
14709;DHT22;7445;50.774;4.944;2023-09-19T12:42:48;21.80;99.90
14709;DHT22;7445;50.774;4.944;2023-09-19T12:45:14;21.60;1.00
14709;DHT22;7445;50.774;4.944;2023-09-19T12:51:05;21.80;1.00
14709;DHT22;7445;50.774;4.944;2023-09-19T12:53:41;21.60;99.90
14709;DHT22;7445;50.774;4.944;2023-09-19T12:56:18;21.30;1.00
14709;DHT22;7445;50.774;4.944;2023-09-19T12:58:54;21.00;1.00
14709;DHT22;7445;50.774;4.944;2023-09-19T13:01:20;20.90;1.00
14709;DHT22;7445;50.774;4.944;2023-09-19T13:04:18;20.70;75.90
14709;DHT22;7445;50.774;4.944;2023-09-19T13:06:51;20.70;99.90
14709;DHT22;7445;50.774;4.944;2023-09-19T13:09:19;20.80;99.90
14709;DHT22;7445;50.774;4.944;2023-09-19T13:11:46;21.00;99.90
14709;DHT22;7445;50.774;4.944;2023-09-19T13:17:05;21.60;99.90
14709;DHT22;7445;50.774;4.944;2023-09-19T13:22:36;21.70;1.00
14709;DHT22;7445;50.774;4.944;2023-09-19T13:25:13;21.90;1.00
14709;DHT22;7445;50.774;4.944;2023-09-19T13:27:44;21.90;1.00
14709;DHT22;7445;50.774;4.944;2023-09-19T13:30:11;21.80;1.00
14709;DHT22;7445;50.774;4.944;2023-09-19T13:32:36;21.70;1.00
14709;DHT22;7445;50.774;4.944;2023-09-19T13:35:04;21.70;1.00
14709;DHT22;7445;50.774;4.944;2023-09-19T13:37:33;21.80;1.00
14709;DHT22;7445;50.774;4.944;2023-09-19T13:40:00;22.00;1.00
14709;DHT22;7445;50.774;4.944;2023-09-19T13:42:26;22.00;1.00
14709;DHT22;7445;50.774;4.944;2023-09-19T13:44:55;21.80;1.00
14709;DHT22;7445;50.774;4.944;2023-09-19T13:47:21;21.70;1.00
14709;DHT22;7445;50.774;4.944;2023-09-19T13:49:50;21.80;7.10
14709;DHT22;7445;50.774;4.944;2023-09-19T13:52:20;21.60;1.00
14709;DHT22;7445;50.774;4.944;2023-09-19T13:54:45;21.60;1.00
14709;DHT22;7445;50.774;4.944;2023-09-19T13:57:13;21.10;1.00
14709;DHT22;7445;50.774;4.944;2023-09-19T13:59:40;21.00;1.00
14709;DHT22;7445;50.774;4.944;2023-09-19T14:02:32;20.70;1.00
14709;DHT22;7445;50.774;4.944;2023-09-19T14:05:01;20.80;99.90
14709;DHT22;7445;50.774;4.944;2023-09-19T14:07:27;20.70;23.20
14709;DHT22;7445;50.774;4.944;2023-09-19T14:09:53;20.60;1.00
14709;DHT22;7445;50.774;4.944;2023-09-19T14:12:19;20.40;99.90
14709;DHT22;7445;50.774;4.944;2023-09-19T14:14:44;20.30;99.90
14709;DHT22;7445;50.774;4.944;2023-09-19T14:20:04;20.30;1.00
14709;DHT22;7445;50.774;4.944;2023-09-19T14:22:41;20.30;1.00
14709;DHT22;7445;50.774;4.944;2023-09-19T14:25:08;20.30;1.00
14709;DHT22;7445;50.774;4.944;2023-09-19T14:27:40;20.40;99.90
14709;DHT22;7445;50.774;4.944;2023-09-19T14:30:14;20.40;1.00
14709;DHT22;7445;50.774;4.944;2023-09-19T14:32:40;20.30;1.00
14709;DHT22;7445;50.774;4.944;2023-09-19T14:35:07;20.40;99.90
14709;DHT22;7445;50.774;4.944;2023-09-19T14:37:35;20.60;99.90
14709;DHT22;7445;50.774;4.944;2023-09-19T14:40:06;20.60;99.90
14709;DHT22;7445;50.774;4.944;2023-09-19T14:42:40;20.70;1.00
14709;DHT22;7445;50.774;4.944;2023-09-19T14:45:11;20.70;1.00
14709;DHT22;7445;50.774;4.944;2023-09-19T14:47:40;20.60;99.90
14709;DHT22;7445;50.774;4.944;2023-09-19T14:50:11;20.60;56.10
14709;DHT22;7445;50.774;4.944;2023-09-19T14:52:38;20.60;99.90
14709;DHT22;7445;50.774;4.944;2023-09-19T14:55:31;20.70;99.90
14709;DHT22;7445;50.774;4.944;2023-09-19T14:58:21;20.90;99.90
14709;DHT22;7445;50.774;4.944;2023-09-19T15:01:12;21.10;1.00
14709;DHT22;7445;50.774;4.944;2023-09-19T15:03:43;21.20;99.90
14709;DHT22;7445;50.774;4.944;2023-09-19T15:06:16;21.10;99.90
14709;DHT22;7445;50.774;4.944;2023-09-19T15:09:15;20.90;1.00
14709;DHT22;7445;50.774;4.944;2023-09-19T15:11:45;20.80;99.90
14709;DHT22;7445;50.774;4.944;2023-09-19T15:14:15;20.80;99.90
14709;DHT22;7445;50.774;4.944;2023-09-19T15:16:47;20.80;96.70
14709;DHT22;7445;50.774;4.944;2023-09-19T15:19:40;20.90;30.90
14709;DHT22;7445;50.774;4.944;2023-09-19T15:22:15;21.10;92.70
14709;DHT22;7445;50.774;4.944;2023-09-19T15:24:41;21.00;1.00
14709;DHT22;7445;50.774;4.944;2023-09-19T15:27:09;21.10;33.40
14709;DHT22;7445;50.774;4.944;2023-09-19T15:29:34;21.10;99.90
14709;DHT22;7445;50.774;4.944;2023-09-19T15:32:00;21.20;1.00
14709;DHT22;7445;50.774;4.944;2023-09-19T15:34:28;21.00;99.90
14709;DHT22;7445;50.774;4.944;2023-09-19T15:36:54;20.80;99.90
14709;DHT22;7445;50.774;4.944;2023-09-19T15:39:19;20.70;1.00
14709;DHT22;7445;50.774;4.944;2023-09-19T15:41:49;20.60;1.00
14709;DHT22;7445;50.774;4.944;2023-09-19T15:44:18;20.70;1.00
14709;DHT22;7445;50.774;4.944;2023-09-19T15:46:46;20.60;99.90
14709;DHT22;7445;50.774;4.944;2023-09-19T15:49:18;20.50;99.90
14709;DHT22;7445;50.774;4.944;2023-09-19T15:51:44;20.50;1.00
14709;DHT22;7445;50.774;4.944;2023-09-19T15:54:14;20.30;1.00
14709;DHT22;7445;50.774;4.944;2023-09-19T15:56:42;20.30;1.00
14709;DHT22;7445;50.774;4.944;2023-09-19T15:59:08;20.20;1.00
14709;DHT22;7445;50.774;4.944;2023-09-19T16:01:37;20.20;1.00
14709;DHT22;7445;50.774;4.944;2023-09-19T16:04:03;20.10;1.00
14709;DHT22;7445;50.774;4.944;2023-09-19T16:06:30;19.90;1.00
14709;DHT22;7445;50.774;4.944;2023-09-19T16:08:59;19.80;1.00
14709;DHT22;7445;50.774;4.944;2023-09-19T16:11:27;19.70;99.90
14709;DHT22;7445;50.774;4.944;2023-09-19T16:13:53;19.70;99.90
14709;DHT22;7445;50.774;4.944;2023-09-19T16:16:20;19.50;1.00
14709;DHT22;7445;50.774;4.944;2023-09-19T16:18:52;19.50;1.00
14709;DHT22;7445;50.774;4.944;2023-09-19T16:21:19;19.40;1.00
14709;DHT22;7445;50.774;4.944;2023-09-19T16:23:46;19.50;1.00
14709;DHT22;7445;50.774;4.944;2023-09-19T16:26:13;19.50;1.00
14709;DHT22;7445;50.774;4.944;2023-09-19T16:28:44;19.40;99.90
14709;DHT22;7445;50.774;4.944;2023-09-19T16:31:11;19.50;54.10
14709;DHT22;7445;50.774;4.944;2023-09-19T16:33:39;19.40;1.00
14709;DHT22;7445;50.774;4.944;2023-09-19T16:36:10;19.40;1.00
14709;DHT22;7445;50.774;4.944;2023-09-19T16:38:38;19.30;1.00
14709;DHT22;7445;50.774;4.944;2023-09-19T16:41:12;19.30;1.00
14709;DHT22;7445;50.774;4.944;2023-09-19T16:43:41;19.30;1.00
14709;DHT22;7445;50.774;4.944;2023-09-19T16:46:10;19.30;1.00
14709;DHT22;7445;50.774;4.944;2023-09-19T16:48:45;19.30;99.90
14709;DHT22;7445;50.774;4.944;2023-09-19T16:51:15;19.20;99.90
14709;DHT22;7445;50.774;4.944;2023-09-19T16:53:49;19.20;74.70
14709;DHT22;7445;50.774;4.944;2023-09-19T16:56:17;19.30;1.00
14709;DHT22;7445;50.774;4.944;2023-09-19T16:58:47;19.30;99.90
14709;DHT22;7445;50.774;4.944;2023-09-19T17:01:34;19.20;99.90
14709;DHT22;7445;50.774;4.944;2023-09-19T17:04:18;19.10;1.00
14709;DHT22;7445;50.774;4.944;2023-09-19T17:06:57;19.10;99.90
14709;DHT22;7445;50.774;4.944;2023-09-19T17:09:24;19.10;1.00
14709;DHT22;7445;50.774;4.944;2023-09-19T17:11:50;19.10;1.00
14709;DHT22;7445;50.774;4.944;2023-09-19T17:14:16;19.10;1.00
14709;DHT22;7445;50.774;4.944;2023-09-19T17:16:42;19.10;99.90
14709;DHT22;7445;50.774;4.944;2023-09-19T17:19:08;19.10;1.00
14709;DHT22;7445;50.774;4.944;2023-09-19T17:21:37;19.10;34.20
14709;DHT22;7445;50.774;4.944;2023-09-19T17:24:04;19.00;1.00
14709;DHT22;7445;50.774;4.944;2023-09-19T17:26:33;19.00;1.00
14709;DHT22;7445;50.774;4.944;2023-09-19T17:29:00;18.90;99.90
14709;DHT22;7445;50.774;4.944;2023-09-19T17:31:27;18.90;37.80
14709;DHT22;7445;50.774;4.944;2023-09-19T17:33:54;18.80;99.90
14709;DHT22;7445;50.774;4.944;2023-09-19T17:36:23;18.80;99.90
14709;DHT22;7445;50.774;4.944;2023-09-19T17:38:52;18.80;21.90
14709;DHT22;7445;50.774;4.944;2023-09-19T17:41:21;18.80;99.90
14709;DHT22;7445;50.774;4.944;2023-09-19T17:43:52;18.70;1.00
14709;DHT22;7445;50.774;4.944;2023-09-19T17:46:18;18.70;1.00
14709;DHT22;7445;50.774;4.944;2023-09-19T17:48:46;18.70;1.00
14709;DHT22;7445;50.774;4.944;2023-09-19T17:51:14;18.70;1.00
14709;DHT22;7445;50.774;4.944;2023-09-19T17:53:41;18.60;99.90
14709;DHT22;7445;50.774;4.944;2023-09-19T17:56:12;18.50;99.90
14709;DHT22;7445;50.774;4.944;2023-09-19T17:58:41;18.50;99.90
14709;DHT22;7445;50.774;4.944;2023-09-19T18:01:15;18.50;1.00
14709;DHT22;7445;50.774;4.944;2023-09-19T18:03:41;18.50;1.00
14709;DHT22;7445;50.774;4.944;2023-09-19T18:06:08;18.50;1.00
14709;DHT22;7445;50.774;4.944;2023-09-19T18:08:34;18.50;99.90
14709;DHT22;7445;50.774;4.944;2023-09-19T18:11:04;18.50;99.90
14709;DHT22;7445;50.774;4.944;2023-09-19T18:13:34;18.50;1.00
14709;DHT22;7445;50.774;4.944;2023-09-19T18:16:06;18.50;99.90
14709;DHT22;7445;50.774;4.944;2023-09-19T18:18:32;18.40;21.20
14709;DHT22;7445;50.774;4.944;2023-09-19T18:21:08;18.50;99.90
14709;DHT22;7445;50.774;4.944;2023-09-19T18:23:34;18.50;99.90
14709;DHT22;7445;50.774;4.944;2023-09-19T18:26:05;18.40;99.90
14709;DHT22;7445;50.774;4.944;2023-09-19T18:28:34;18.30;99.90
14709;DHT22;7445;50.774;4.944;2023-09-19T18:31:07;18.30;1.00
14709;DHT22;7445;50.774;4.944;2023-09-19T18:33:36;18.30;1.00
14709;DHT22;7445;50.774;4.944;2023-09-19T18:36:06;18.30;99.90
14709;DHT22;7445;50.774;4.944;2023-09-19T18:38:43;18.20;99.90
14709;DHT22;7445;50.774;4.944;2023-09-19T18:41:14;18.30;1.00
14709;DHT22;7445;50.774;4.944;2023-09-19T18:43:40;18.30;99.90
14709;DHT22;7445;50.774;4.944;2023-09-19T18:46:07;18.30;99.90
14709;DHT22;7445;50.774;4.944;2023-09-19T18:48:43;18.20;99.90
14709;DHT22;7445;50.774;4.944;2023-09-19T18:51:14;18.20;99.90
14709;DHT22;7445;50.774;4.944;2023-09-19T18:53:41;18.20;1.00
14709;DHT22;7445;50.774;4.944;2023-09-19T18:56:12;18.20;99.90
14709;DHT22;7445;50.774;4.944;2023-09-19T18:58:42;18.20;99.90
14709;DHT22;7445;50.774;4.944;2023-09-19T19:01:11;18.20;99.90
14709;DHT22;7445;50.774;4.944;2023-09-19T19:03:42;18.30;1.00
14709;DHT22;7445;50.774;4.944;2023-09-19T19:06:26;18.20;99.90
14709;DHT22;7445;50.774;4.944;2023-09-19T19:09:32;18.20;76.80
14709;DHT22;7445;50.774;4.944;2023-09-19T19:12:26;18.10;1.00
14709;DHT22;7445;50.774;4.944;2023-09-19T19:14:52;18.10;1.00
14709;DHT22;7445;50.774;4.944;2023-09-19T19:17:29;18.10;1.00
14709;DHT22;7445;50.774;4.944;2023-09-19T19:20:00;18.10;1.00
14709;DHT22;7445;50.774;4.944;2023-09-19T19:22:26;18.10;1.00
14709;DHT22;7445;50.774;4.944;2023-09-19T19:24:53;18.10;1.00
14709;DHT22;7445;50.774;4.944;2023-09-19T19:27:23;18.20;99.90
14709;DHT22;7445;50.774;4.944;2023-09-19T19:29:56;18.20;99.90
14709;DHT22;7445;50.774;4.944;2023-09-19T19:32:23;18.30;1.00
14709;DHT22;7445;50.774;4.944;2023-09-19T19:34:52;18.20;1.00
14709;DHT22;7445;50.774;4.944;2023-09-19T19:37:21;18.20;1.00
14709;DHT22;7445;50.774;4.944;2023-09-19T19:39:47;18.20;1.00
14709;DHT22;7445;50.774;4.944;2023-09-19T19:42:13;18.20;1.00
14709;DHT22;7445;50.774;4.944;2023-09-19T19:44:39;18.20;1.00
14709;DHT22;7445;50.774;4.944;2023-09-19T19:47:05;18.20;99.90
14709;DHT22;7445;50.774;4.944;2023-09-19T19:49:31;18.20;99.90
14709;DHT22;7445;50.774;4.944;2023-09-19T19:51:58;18.20;99.90
14709;DHT22;7445;50.774;4.944;2023-09-19T19:54:24;18.20;1.00
14709;DHT22;7445;50.774;4.944;2023-09-19T19:56:50;18.20;1.00
14709;DHT22;7445;50.774;4.944;2023-09-19T19:59:32;18.10;1.00
14709;DHT22;7445;50.774;4.944;2023-09-19T20:01:58;18.10;99.90
14709;DHT22;7445;50.774;4.944;2023-09-19T20:04:24;18.10;1.00
14709;DHT22;7445;50.774;4.944;2023-09-19T20:06:51;18.10;1.00
14709;DHT22;7445;50.774;4.944;2023-09-19T20:09:17;18.10;1.00
14709;DHT22;7445;50.774;4.944;2023-09-19T20:11:45;18.10;1.00
14709;DHT22;7445;50.774;4.944;2023-09-19T20:14:11;18.10;99.90
14709;DHT22;7445;50.774;4.944;2023-09-19T20:16:37;18.10;1.00
14709;DHT22;7445;50.774;4.944;2023-09-19T20:19:03;18.10;1.00
14709;DHT22;7445;50.774;4.944;2023-09-19T20:21:30;18.10;1.00
14709;DHT22;7445;50.774;4.944;2023-09-19T20:23:56;18.00;1.00
14709;DHT22;7445;50.774;4.944;2023-09-19T20:26:29;18.00;1.00
14709;DHT22;7445;50.774;4.944;2023-09-19T20:28:56;18.00;1.00
14709;DHT22;7445;50.774;4.944;2023-09-19T20:31:21;18.00;1.00
14709;DHT22;7445;50.774;4.944;2023-09-19T20:33:51;18.00;1.00
14709;DHT22;7445;50.774;4.944;2023-09-19T20:36:40;18.10;1.00
14709;DHT22;7445;50.774;4.944;2023-09-19T20:39:08;18.10;1.00
14709;DHT22;7445;50.774;4.944;2023-09-19T20:41:35;18.10;99.90
14709;DHT22;7445;50.774;4.944;2023-09-19T20:44:04;18.10;99.90
14709;DHT22;7445;50.774;4.944;2023-09-19T21:38:38;17.80;99.90
14709;DHT22;7445;50.774;4.944;2023-09-19T21:41:32;17.80;1.00
14709;DHT22;7445;50.774;4.944;2023-09-19T21:44:12;17.80;99.90
14709;DHT22;7445;50.774;4.944;2023-09-19T21:46:41;17.70;99.90
